Huvudsida
METAR-TAF:

METAR-TAF

Flygplatser :

Bardufoss flygplats

Bardufoss, Norge

latitud: 69-04N, longitud: 018-32E, höjd: 7 m

Aktuellt väderrapport

Denna rapport gjordes för 1 timme och 7 minuter sedan, klockan 17:50 UTC
Stilla vind
Temperatur -2°C
Fuktighet 93%
Tryck 990 hPa
Sikt 10 km eller mer
Inga moln under 1 500 m eller inga cumulonimbus

METAR: ENDU 231750Z 00000KT CAVOK M02/M03 Q0990 RMK WIND 1100FT 18003KT WIND 2200FT 15003KT

Tid: 20:57 (18:57 UTC)

Väderprognos

Prognos gäller från 23 kl. 18 UTC till 24 kl. 18 UTC
Vind 3 kt varierande vindriktning
Sikt 10 km eller mer
Spridda moln på en höjd av 6000 ft
Sannolikhet 30%
från 23 kl. 21 UTC till 24 kl. 12 UTC
Sikt: 0800 m
på en höjd av 200 ft
underkyld dimma

TAF: ENDU 2318/2418 VRB03KT 9999 SCT060 PROB30 2321/2412 0800 FZFG VV002

Aktuella väderrapporter och prognoser från 4000 flygplatser (METAR- och TAF-rapporter).

De tillgängliga stationerna syns som gula och röda prickar på kartan.

För musen över prickarna för att se namnen på stationerna.

Klicka sedan för att få väderrapporter och prognoser.

För att ändra kartan: Klicka på de gröna knapparna med ett svart kors på för att zooma in; den gröna knappen med ett streck på för att zooma ut; eller på de gröna pilarna för angränsande kartor.


METAR-TAF: